Time;durP1;ratioP1;P1;durP2;ratioP2;P2;SDS_P1;SDS_P2;PMS_P1;PMS_P2;Temp;Humidity;BMP_temperature;BMP_pressure;BME280_temperature;BME280_humidity;BME280_pressure;Samples;Min_cycle;Max_cycle;Signal;HPM_P1;HPM_P2
2022/09/08 00:00:46;;;;;;;12.52;11.25;;;16.70;99.90;;;;;;5070579;28;20060;-68
2022/09/08 00:03:15;;;;;;;13.00;11.60;;;16.70;99.90;;;;;;5071594;28;20037;-68
2022/09/08 00:05:58;;;;;;;14.27;11.27;;;16.60;99.90;;;;;;5071005;28;20097;-68
2022/09/08 00:08:24;;;;;;;13.35;12.05;;;16.70;99.90;;;;;;5072334;28;20063;-68
2022/09/08 00:10:52;;;;;;;13.25;11.40;;;16.60;99.90;;;;;;5054200;28;20052;-68
2022/09/08 00:13:18;;;;;;;12.18;10.95;;;16.70;99.90;;;;;;5071508;28;20527;-68
2022/09/08 00:15:44;;;;;;;12.98;11.57;;;16.60;99.90;;;;;;5070784;28;20067;-68
2022/09/08 00:18:10;;;;;;;12.07;10.77;;;16.70;99.90;;;;;;5071822;28;20075;-67
2022/09/08 00:20:36;;;;;;;12.57;11.27;;;16.60;99.90;;;;;;5071666;28;20492;-67
2022/09/08 00:23:02;;;;;;;13.00;11.25;;;16.60;99.90;;;;;;5071712;28;20055;-68
2022/09/08 00:25:27;;;;;;;12.02;10.85;;;16.60;99.90;;;;;;5069855;28;20057;-68
2022/09/08 00:27:53;;;;;;;12.20;11.00;;;16.50;99.90;;;;;;5069850;28;20124;-68
2022/09/08 00:30:19;;;;;;;12.23;10.80;;;16.50;99.90;;;;;;5071154;28;20049;-68
2022/09/08 00:32:44;;;;;;;12.32;11.13;;;16.50;99.90;;;;;;5071445;28;20489;-68
2022/09/08 00:35:14;;;;;;;12.60;10.88;;;16.50;99.90;;;;;;5070224;28;20131;-68
2022/09/08 00:37:40;;;;;;;12.63;11.30;;;16.50;99.90;;;;;;5070424;28;20052;-69
2022/09/08 00:40:07;;;;;;;12.07;10.88;;;16.40;99.90;;;;;;5071267;28;20070;-68
2022/09/08 00:42:33;;;;;;;12.48;11.18;;;16.40;99.90;;;;;;5071469;28;20098;-68
2022/09/08 00:44:58;;;;;;;13.18;11.75;;;16.40;99.90;;;;;;5071684;28;20052;-68
2022/09/08 00:47:26;;;;;;;13.05;11.75;;;16.30;99.90;;;;;;5071518;28;20060;-68
2022/09/08 00:50:03;;;;;;;12.15;10.95;;;16.30;99.90;;;;;;5071272;28;20408;-68
2022/09/08 00:52:46;;;;;;;13.48;12.05;;;16.30;99.90;;;;;;5071372;28;20041;-68
2022/09/08 00:55:12;;;;;;;13.25;11.80;;;16.30;99.90;;;;;;5070857;28;20074;-69
2022/09/08 00:57:38;;;;;;;12.80;11.50;;;16.30;99.90;;;;;;5071336;28;20127;-68
2022/09/08 01:00:10;;;;;;;13.18;11.38;;;16.30;99.90;;;;;;5070770;28;20148;-68
2022/09/08 01:02:36;;;;;;;11.98;10.68;;;16.30;99.90;;;;;;5071165;28;20057;-69
2022/09/08 01:05:07;;;;;;;12.88;10.82;;;16.30;99.90;;;;;;5071148;28;20047;-68
2022/09/08 01:13:20;;;;;;;13.32;11.93;;;16.30;99.90;;;;;;5071150;28;20064;-68
2022/09/08 01:15:46;;;;;;;14.65;12.85;;;16.30;99.90;;;;;;5071152;28;20041;-69
2022/09/08 01:18:12;;;;;;;14.23;12.73;;;16.40;99.90;;;;;;5070970;28;20094;-68
2022/09/08 01:20:47;;;;;;;14.55;13.05;;;16.40;99.90;;;;;;5069223;28;20049;-68
2022/09/08 01:23:42;;;;;;;14.32;12.93;;;16.40;99.90;;;;;;5071038;28;20127;-68
2022/09/08 01:26:26;;;;;;;11.85;10.65;;;16.30;99.90;;;;;;5069854;28;20190;-68
2022/09/08 01:29:02;;;;;;;12.40;11.02;;;16.30;99.90;;;;;;5070848;28;20044;-68
2022/09/08 01:31:34;;;;;;;12.40;11.10;;;16.20;99.90;;;;;;5070678;28;20546;-68
2022/09/08 01:34:00;;;;;;;13.20;11.80;;;16.10;99.90;;;;;;5071085;28;20056;-68
2022/09/08 01:36:26;;;;;;;13.52;12.13;;;16.10;99.90;;;;;;5068723;28;20465;-68
2022/09/08 01:38:52;;;;;;;12.75;11.43;;;16.10;99.90;;;;;;5070935;28;20127;-68
2022/09/08 01:41:17;;;;;;;14.95;10.73;;;16.10;99.90;;;;;;5070671;28;20393;-68
2022/09/08 01:43:43;;;;;;;13.25;11.30;;;16.10;99.90;;;;;;5074060;28;20048;-68
2022/09/08 01:46:09;;;;;;;13.38;12.00;;;16.00;99.90;;;;;;5073323;28;20056;-68
2022/09/08 01:48:35;;;;;;;13.05;11.60;;;16.00;99.90;;;;;;5074724;28;20064;-69
2022/09/08 01:51:03;;;;;;;12.98;11.30;;;16.10;99.90;;;;;;5074461;28;20075;-69
2022/09/08 01:53:29;;;;;;;16.02;12.15;;;16.10;99.90;;;;;;5074851;28;20055;-68
2022/09/08 01:55:55;;;;;;;15.52;11.75;;;16.10;99.90;;;;;;5072823;28;20398;-68
2022/09/08 01:58:21;;;;;;;13.60;12.20;;;16.10;99.90;;;;;;5074470;28;20063;-68
2022/09/08 02:00:47;;;;;;;13.55;11.98;;;16.10;99.90;;;;;;5073786;28;20056;-68
2022/09/08 02:03:13;;;;;;;13.35;11.95;;;16.10;99.90;;;;;;5073086;28;20563;-68
2022/09/08 02:05:40;;;;;;;14.10;12.32;;;16.20;99.90;;;;;;5074322;28;20052;-68
2022/09/08 02:08:07;;;;;;;14.68;12.45;;;16.20;99.90;;;;;;5074149;28;20055;-68
2022/09/08 02:10:33;;;;;;;14.95;13.10;;;16.30;99.90;;;;;;5074218;28;20074;-68
2022/09/08 02:12:58;;;;;;;14.57;12.27;;;16.30;99.90;;;;;;5074238;28;20163;-68
2022/09/08 02:15:24;;;;;;;15.68;13.45;;;16.30;99.90;;;;;;5056570;28;20572;-68
2022/09/08 02:17:50;;;;;;;14.77;13.27;;;16.30;99.90;;;;;;5071522;28;20069;-68
2022/09/08 02:20:17;;;;;;;17.27;13.55;;;16.30;99.90;;;;;;5072840;28;20392;-68
2022/09/08 02:22:43;;;;;;;16.23;14.30;;;16.30;99.90;;;;;;5073979;28;20060;-68
2022/09/08 02:25:09;;;;;;;18.00;14.02;;;16.30;99.90;;;;;;5072281;28;20111;-68
2022/09/08 02:27:35;;;;;;;16.25;13.73;;;16.30;99.90;;;;;;5073870;28;20400;-68
2022/09/08 02:30:00;;;;;;;15.88;14.18;;;16.30;99.90;;;;;;5073851;28;20094;-68
2022/09/08 02:32:26;;;;;;;16.15;14.43;;;16.30;99.90;;;;;;5073541;28;20052;-68
2022/09/08 02:34:52;;;;;;;14.95;13.32;;;16.30;99.90;;;;;;5072469;28;20053;-68
2022/09/08 02:37:18;;;;;;;15.88;14.18;;;16.30;99.90;;;;;;5073759;28;20048;-68
2022/09/08 02:39:44;;;;;;;15.50;13.68;;;16.30;99.90;;;;;;5073719;28;20143;-68
2022/09/08 02:42:11;;;;;;;18.92;13.68;;;16.30;99.90;;;;;;5073809;28;20388;-68
2022/09/08 02:44:38;;;;;;;14.93;13.20;;;16.40;99.90;;;;;;5073872;28;20055;-68
2022/09/08 02:47:04;;;;;;;15.35;13.75;;;16.40;99.90;;;;;;5072345;28;20055;-68
2022/09/08 02:49:32;;;;;;;17.45;15.02;;;16.40;99.90;;;;;;5072235;28;20059;-68
2022/09/08 02:51:58;;;;;;;16.83;15.05;;;16.40;99.90;;;;;;5073411;28;20052;-67
2022/09/08 02:54:24;;;;;;;16.80;15.00;;;16.40;99.90;;;;;;5072491;28;20500;-68
2022/09/08 02:56:50;;;;;;;15.60;13.93;;;16.40;99.90;;;;;;5073512;28;20050;-68
2022/09/08 02:59:15;;;;;;;16.88;14.88;;;16.40;99.90;;;;;;5073354;28;20094;-68
2022/09/08 03:01:43;;;;;;;16.23;14.50;;;16.40;99.90;;;;;;5073163;28;20404;-68
2022/09/08 03:04:10;;;;;;;17.38;14.80;;;16.40;99.90;;;;;;5072004;28;20157;-68
2022/09/08 03:06:37;;;;;;;17.17;15.38;;;16.40;99.90;;;;;;5073001;28;20378;-68
2022/09/08 03:09:03;;;;;;;17.30;14.32;;;16.40;99.90;;;;;;5070072;28;20059;-68
2022/09/08 03:11:31;;;;;;;17.52;15.32;;;16.40;99.90;;;;;;5072602;28;20496;-68
2022/09/08 03:13:57;;;;;;;18.55;15.75;;;16.40;99.90;;;;;;5071976;28;20044;-68
2022/09/08 03:16:23;;;;;;;17.10;15.30;;;16.40;99.90;;;;;;5071868;28;20083;-67
2022/09/08 03:18:48;;;;;;;21.42;15.88;;;16.30;99.90;;;;;;5072883;28;20048;-67
2022/09/08 03:21:15;;;;;;;17.27;15.48;;;16.40;99.90;;;;;;5071327;28;20094;-68
2022/09/08 03:23:41;;;;;;;18.55;16.27;;;16.30;99.90;;;;;;5072926;28;20438;-68
2022/09/08 03:26:13;;;;;;;19.73;16.20;;;16.30;99.90;;;;;;5069233;28;20124;-67
2022/09/08 03:28:40;;;;;;;20.05;16.45;;;16.30;99.90;;;;;;5072716;28;20051;-68
2022/09/08 03:31:08;;;;;;;23.13;17.45;;;16.30;99.90;;;;;;5071354;28;20045;-67
2022/09/08 03:33:34;;;;;;;19.85;16.58;;;16.30;99.90;;;;;;5071241;28;20559;-67
2022/09/08 03:36:01;;;;;;;20.05;16.40;;;16.30;99.90;;;;;;5072798;28;20048;-67
2022/09/08 03:38:27;;;;;;;19.42;16.42;;;16.40;99.90;;;;;;5071512;28;20056;-68
2022/09/08 03:40:53;;;;;;;18.38;16.35;;;16.40;99.90;;;;;;5072565;28;20048;-67
2022/09/08 03:43:18;;;;;;;16.55;14.77;;;16.40;99.90;;;;;;5072541;28;20043;-67
2022/09/08 03:45:45;;;;;;;17.50;14.65;;;16.40;99.90;;;;;;5072428;28;20494;-67
2022/09/08 03:48:11;;;;;;;17.98;13.85;;;16.40;99.90;;;;;;5071303;28;20101;-68
2022/09/08 03:50:37;;;;;;;17.85;14.98;;;16.30;99.90;;;;;;5072256;28;20070;-68
2022/09/08 03:53:03;;;;;;;16.52;14.73;;;16.30;99.90;;;;;;5072252;28;20048;-68
2022/09/08 03:55:28;;;;;;;17.95;15.25;;;16.30;99.90;;;;;;5053632;28;20131;-68
2022/09/08 03:57:54;;;;;;;17.45;15.55;;;16.30;99.90;;;;;;5072193;28;20059;-68
2022/09/08 04:00:20;;;;;;;19.27;15.90;;;16.20;99.90;;;;;;5070495;28;20312;-67
2022/09/08 04:02:46;;;;;;;19.13;16.05;;;16.30;99.90;;;;;;5070550;28;20056;-68
2022/09/08 04:05:11;;;;;;;19.63;16.15;;;16.30;99.90;;;;;;5070215;28;20083;-68
2022/09/08 04:07:38;;;;;;;21.10;16.95;;;16.30;99.90;;;;;;5071808;28;20485;-68
2022/09/08 04:10:05;;;;;;;21.05;17.77;;;16.30;99.90;;;;;;5071869;28;20127;-68
2022/09/08 04:12:31;;;;;;;21.95;18.80;;;16.30;99.90;;;;;;5071870;28;20393;-68
2022/09/08 04:14:57;;;;;;;20.42;17.63;;;16.30;99.90;;;;;;5070582;28;20052;-67
2022/09/08 04:17:23;;;;;;;20.75;17.50;;;16.30;99.90;;;;;;5071788;28;20052;-68
2022/09/08 04:19:50;;;;;;;20.02;17.88;;;16.30;99.90;;;;;;5070747;28;20047;-68
2022/09/08 04:22:21;;;;;;;21.23;18.60;;;16.40;99.90;;;;;;5071485;28;20485;-68
2022/09/08 04:24:47;;;;;;;20.30;17.67;;;16.40;99.90;;;;;;5071228;28;20105;-68
2022/09/08 04:27:13;;;;;;;19.92;17.63;;;16.40;99.90;;;;;;5067961;28;20041;-68
2022/09/08 04:29:39;;;;;;;21.85;17.98;;;16.40;99.90;;;;;;5053760;28;20118;-68
2022/09/08 04:32:07;;;;;;;21.33;17.88;;;16.40;99.90;;;;;;5071578;28;20052;-68
2022/09/08 04:34:33;;;;;;;19.73;17.63;;;16.40;99.90;;;;;;5071643;28;20048;-69
2022/09/08 04:36:59;;;;;;;19.48;16.60;;;16.40;99.90;;;;;;5070423;28;20056;-68
2022/09/08 04:39:25;;;;;;;21.13;18.10;;;16.40;99.90;;;;;;5071589;28;20052;-68
2022/09/08 04:41:50;;;;;;;22.88;17.77;;;16.40;99.90;;;;;;5070188;28;20504;-68
2022/09/08 04:44:16;;;;;;;19.92;17.35;;;16.40;99.90;;;;;;5067977;28;20048;-69
2022/09/08 04:46:42;;;;;;;22.42;18.52;;;16.40;99.90;;;;;;5070118;28;20099;-69
2022/09/08 04:49:07;;;;;;;20.50;17.48;;;16.40;99.90;;;;;;5070124;28;20057;-68
2022/09/08 04:51:33;;;;;;;20.45;17.88;;;16.40;99.90;;;;;;5070921;28;20037;-68
2022/09/08 04:54:00;;;;;;;21.15;17.67;;;16.30;99.90;;;;;;5069682;28;20067;-69
2022/09/08 04:56:27;;;;;;;21.25;17.73;;;16.30;99.90;;;;;;5070269;28;20581;-68
2022/09/08 04:58:54;;;;;;;20.10;17.35;;;16.30;99.90;;;;;;5070126;28;20087;-68
2022/09/08 05:01:23;;;;;;;21.92;17.58;;;16.30;99.90;;;;;;5068603;28;20485;-69
2022/09/08 05:03:59;;;;;;;19.30;17.23;;;16.30;99.90;;;;;;5068241;28;20148;-69
2022/09/08 05:06:26;;;;;;;22.20;17.98;;;16.40;99.90;;;;;;5071089;28;20083;-68
2022/09/08 05:08:54;;;;;;;21.90;18.50;;;16.40;99.90;;;;;;5069631;28;20397;-68
2022/09/08 05:11:21;;;;;;;21.70;18.92;;;16.30;99.90;;;;;;5069243;28;20052;-68
2022/09/08 05:13:49;;;;;;;20.83;18.27;;;16.40;99.90;;;;;;5071026;28;20088;-69
2022/09/08 05:16:17;;;;;;;20.17;17.58;;;16.10;99.90;;;;;;5071007;28;20078;-68
2022/09/08 05:18:50;;;;;;;22.58;18.45;;;16.30;99.90;;;;;;5075178;28;20048;-69
2022/09/08 05:21:16;;;;;;;21.20;18.27;;;16.40;99.90;;;;;;5073757;28;20036;-69
2022/09/08 05:23:42;;;;;;;23.05;19.75;;;16.30;99.90;;;;;;5075127;28;20110;-68
2022/09/08 05:26:15;;;;;;;21.45;18.48;;;16.30;99.90;;;;;;5074464;28;20040;-69
2022/09/08 05:28:42;;;;;;;23.35;19.23;;;16.30;99.90;;;;;;5073963;28;20465;-68
2022/09/08 05:31:11;;;;;;;22.35;18.92;;;16.40;99.90;;;;;;5057371;28;20048;-69
2022/09/08 05:33:37;;;;;;;22.77;18.95;;;16.40;99.90;;;;;;5073929;28;20102;-69
2022/09/08 05:36:11;;;;;;;21.88;19.42;;;16.40;99.90;;;;;;5074979;28;20084;-68
2022/09/08 05:38:37;;;;;;;22.80;18.73;;;16.40;99.90;;;;;;5073402;28;20094;-68
2022/09/08 05:41:03;;;;;;;24.95;20.08;;;16.40;99.90;;;;;;5073473;28;20044;-69
2022/09/08 05:43:28;;;;;;;24.35;20.52;;;16.40;99.90;;;;;;5074424;28;20075;-69
2022/09/08 05:45:54;;;;;;;23.25;19.50;;;16.50;99.90;;;;;;5074481;28;20307;-69
2022/09/08 05:48:19;;;;;;;27.20;20.77;;;16.40;99.90;;;;;;5073397;28;20044;-68
2022/09/08 05:50:46;;;;;;;24.20;20.20;;;16.50;99.90;;;;;;5073477;28;20131;-68
2022/09/08 05:53:13;;;;;;;23.77;19.52;;;16.50;99.90;;;;;;5072031;28;20056;-67
2022/09/08 05:55:40;;;;;;;27.17;21.10;;;16.50;99.90;;;;;;5072360;28;20106;-67
2022/09/08 05:58:07;;;;;;;25.02;20.80;;;16.50;99.90;;;;;;5074472;28;20044;-67
2022/09/08 06:00:33;;;;;;;24.98;20.45;;;16.50;99.90;;;;;;5074343;28;20139;-67
2022/09/08 06:02:59;;;;;;;24.35;19.80;;;16.50;99.90;;;;;;5056613;28;20466;-67
2022/09/08 06:05:25;;;;;;;22.95;18.55;;;16.50;99.90;;;;;;5074448;28;20159;-68
2022/09/08 06:07:50;;;;;;;26.35;20.48;;;16.50;99.90;;;;;;5073133;28;20054;-67
2022/09/08 06:10:17;;;;;;;25.92;21.45;;;16.60;99.90;;;;;;5074220;28;20404;-67
2022/09/08 06:12:44;;;;;;;26.70;21.02;;;16.60;99.90;;;;;;5074241;28;20100;-67
2022/09/08 06:15:10;;;;;;;27.10;22.15;;;16.60;99.90;;;;;;5072858;28;20051;-67
2022/09/08 06:17:36;;;;;;;25.77;20.40;;;16.60;99.90;;;;;;5073799;28;20048;-68
2022/09/08 06:20:04;;;;;;;27.02;21.77;;;16.50;99.90;;;;;;5074044;28;20079;-67
2022/09/08 06:22:32;;;;;;;26.05;20.00;;;16.60;99.90;;;;;;5073957;28;20059;-67
2022/09/08 06:24:57;;;;;;;24.50;19.75;;;16.60;99.90;;;;;;5073063;28;20517;-68
2022/09/08 06:27:48;;;;;;;27.60;21.77;;;16.60;99.90;;;;;;5072535;28;20098;-67
2022/09/08 06:30:18;;;;;;;27.70;21.50;;;16.70;99.90;;;;;;5071776;28;20131;-68
2022/09/08 06:33:07;;;;;;;27.85;20.63;;;16.60;99.90;;;;;;5073768;28;20080;-67
2022/09/08 06:35:47;;;;;;;27.73;20.70;;;16.60;99.90;;;;;;5054125;28;20371;-68
2022/09/08 06:38:42;;;;;;;26.52;20.55;;;16.60;99.90;;;;;;5062399;28;20435;-67
2022/09/08 06:41:13;;;;;;;26.83;21.17;;;16.60;99.90;;;;;;5073681;28;20361;-67
2022/09/08 06:44:03;;;;;;;29.08;21.45;;;16.60;99.90;;;;;;5073699;28;20059;-66
2022/09/08 06:46:32;;;;;;;27.38;21.50;;;16.70;99.90;;;;;;5073579;28;20040;-66
2022/09/08 06:48:59;;;;;;;26.10;20.73;;;16.70;99.90;;;;;;5073880;28;20055;-67
2022/09/08 06:51:42;;;;;;;27.85;21.73;;;16.80;99.90;;;;;;5072133;28;20106;-67
2022/09/08 06:54:14;;;;;;;27.98;21.17;;;16.80;99.90;;;;;;5072088;28;20052;-67
2022/09/08 06:57:32;;;;;;;29.40;21.58;;;16.80;99.90;;;;;;5071336;28;20048;-67
2022/09/08 07:00:12;;;;;;;;;;;16.80;99.90;;;;;;5014366;28;20561;-68
2022/09/08 07:02:41;;;;;;;21.17;16.00;;;16.80;99.90;;;;;;5073304;28;20010;-68
2022/09/08 07:05:31;;;;;;;18.13;14.35;;;16.70;99.90;;;;;;5073232;28;20056;-67
2022/09/08 07:08:04;;;;;;;15.05;12.23;;;16.80;99.90;;;;;;5072059;28;20044;-66
2022/09/08 07:10:41;;;;;;;14.93;11.93;;;16.80;99.90;;;;;;5072142;28;20099;-66
2022/09/08 07:13:39;;;;;;;14.35;11.45;;;16.80;99.90;;;;;;5073066;28;20055;-66
2022/09/08 07:16:25;;;;;;;14.68;12.00;;;16.80;99.90;;;;;;5049595;28;20075;-66
2022/09/08 07:19:11;;;;;;;15.95;12.48;;;16.80;99.90;;;;;;5072965;28;20048;-66
2022/09/08 07:21:52;;;;;;;14.13;12.30;;;16.80;99.90;;;;;;5072807;28;20104;-67
2022/09/08 07:24:21;;;;;;;15.02;12.52;;;16.80;99.90;;;;;;5072549;28;20084;-67
2022/09/08 07:26:52;;;;;;;17.13;12.90;;;16.80;99.90;;;;;;5072759;28;20067;-67
2022/09/08 07:29:23;;;;;;;15.50;13.43;;;16.80;99.90;;;;;;5071681;28;20443;-66
2022/09/08 07:31:51;;;;;;;16.48;14.10;;;16.80;99.90;;;;;;5072773;28;20154;-66
2022/09/08 07:34:26;;;;;;;16.90;14.85;;;16.80;99.90;;;;;;5072479;28;20087;-66
2022/09/08 07:37:24;;;;;;;17.60;15.32;;;16.90;99.90;;;;;;5071649;28;20098;-66
2022/09/08 07:40:15;;;;;;;19.02;15.82;;;16.90;99.90;;;;;;5071456;28;20378;-66
2022/09/08 07:42:41;;;;;;;18.15;15.80;;;16.90;99.90;;;;;;5071201;28;20166;-66
2022/09/08 07:45:10;;;;;;;19.48;15.88;;;16.90;99.90;;;;;;5072267;28;20496;-67
2022/09/08 07:47:39;;;;;;;19.88;16.60;;;17.00;99.90;;;;;;5072321;28;20048;-66
2022/09/08 07:50:20;;;;;;;22.08;17.48;;;17.00;99.90;;;;;;5067556;28;20522;-66
2022/09/08 07:52:45;;;;;;;25.42;19.48;;;17.00;99.90;;;;;;5072199;28;20048;-66
2022/09/08 07:55:33;;;;;;;22.52;17.95;;;17.00;99.90;;;;;;5070624;28;20489;-66
2022/09/08 07:58:27;;;;;;;24.88;18.42;;;17.00;99.90;;;;;;5072215;28;20048;-67
2022/09/08 08:01:31;;;;;;;26.80;20.90;;;16.90;99.90;;;;;;5063342;28;20092;-66
2022/09/08 08:04:09;;;;;;;26.70;21.08;;;16.90;99.90;;;;;;5067770;28;20085;-66
2022/09/08 08:06:52;;;;;;;27.20;21.05;;;16.90;99.90;;;;;;5072099;28;20055;-66
2022/09/08 08:09:17;;;;;;;29.10;22.15;;;16.80;99.90;;;;;;5070952;28;20048;-66
2022/09/08 08:12:24;;;;;;;28.35;23.08;;;16.80;99.90;;;;;;5071983;28;20051;-66
2022/09/08 08:15:09;;;;;;;31.52;25.10;;;16.90;99.90;;;;;;5071936;28;20059;-66
2022/09/08 08:17:47;;;;;;;33.97;24.10;;;16.90;99.90;;;;;;5071806;28;20075;-66
2022/09/08 08:20:56;;;;;;;37.28;27.55;;;16.90;99.90;;;;;;5071655;28;20044;-66
2022/09/08 08:23:39;;;;;;;34.53;26.58;;;16.70;99.90;;;;;;5049627;28;20139;-66
2022/09/08 08:26:26;;;;;;;36.10;25.02;;;16.70;99.90;;;;;;5071083;28;20059;-66
2022/09/08 08:28:58;;;;;;;;;;;16.70;99.90;;;;;;5052116;28;20095;-66
2022/09/08 08:31:40;;;;;;;35.00;25.80;;;16.60;99.90;;;;;;5058313;28;19920;-67
2022/09/08 08:34:15;;;;;;;36.03;23.77;;;16.60;99.90;;;;;;5071547;28;20052;-67
2022/09/08 08:36:45;;;;;;;36.55;26.23;;;16.60;99.90;;;;;;5071605;28;20048;-67
2022/09/08 08:39:24;;;;;;;37.63;24.88;;;16.60;99.90;;;;;;5071804;28;20048;-67
2022/09/08 08:42:31;;;;;;;33.10;24.75;;;16.60;99.90;;;;;;5071397;28;20044;-67
2022/09/08 08:45:07;;;;;;;31.23;21.92;;;16.60;99.90;;;;;;5070407;28;20485;-68
2022/09/08 08:47:48;;;;;;;29.17;22.70;;;16.60;99.90;;;;;;5071501;28;20408;-67
2022/09/08 08:50:23;;;;;;;26.90;18.63;;;16.70;99.90;;;;;;5071435;28;20085;-69
2022/09/08 08:53:11;;;;;;;22.33;16.35;;;16.70;99.90;;;;;;5070061;28;20049;-67
2022/09/08 08:55:48;;;;;;;20.13;14.52;;;16.60;99.90;;;;;;5070915;28;20044;-67
2022/09/08 08:58:31;;;;;;;20.60;13.30;;;16.60;99.90;;;;;;5071329;28;20049;-66
2022/09/08 09:01:15;;;;;;;16.05;12.25;;;16.60;99.90;;;;;;5070648;28;20387;-66
2022/09/08 09:03:48;;;;;;;14.50;10.80;;;16.60;99.90;;;;;;5070970;28;20128;-65
2022/09/08 09:06:33;;;;;;;12.90;9.70;;;16.50;99.90;;;;;;5069149;28;20056;-66
2022/09/08 09:09:20;;;;;;;14.40;9.93;;;16.50;99.90;;;;;;5062923;28;20055;-65
2022/09/08 09:12:15;;;;;;;;;;;16.50;99.90;;;;;;5071610;28;20044;-66
2022/09/08 09:15:18;;;;;;;11.60;9.50;;;16.60;99.90;;;;;;5013506;28;20306;-66
2022/09/08 09:18:05;;;;;;;13.57;9.98;;;16.60;99.90;;;;;;5050921;28;20110;-65
2022/09/08 09:20:36;;;;;;;12.95;10.07;;;16.60;99.90;;;;;;5051109;28;20127;-66
2022/09/08 09:23:35;;;;;;;14.00;9.57;;;16.70;99.90;;;;;;5055238;28;20454;-67
2022/09/08 09:26:05;;;;;;;12.68;9.80;;;16.70;99.90;;;;;;5070361;28;20049;-66
2022/09/08 09:29:04;;;;;;;12.20;9.68;;;16.70;99.90;;;;;;5071053;28;20067;-66
2022/09/08 09:31:47;;;;;;;13.40;9.80;;;16.70;99.90;;;;;;5069703;28;20056;-66
2022/09/08 09:34:33;;;;;;;11.70;8.95;;;16.80;99.90;;;;;;5070358;28;20051;-67
2022/09/08 09:37:24;;;;;;;12.05;9.52;;;16.80;99.90;;;;;;5069874;28;20045;-66
2022/09/08 09:40:11;;;;;;;11.40;8.60;;;16.80;99.90;;;;;;5070868;28;20072;-66
2022/09/08 09:42:40;;;;;;;8.98;7.55;;;16.80;99.90;;;;;;5070891;28;20500;-66
2022/09/08 09:45:14;;;;;;;9.90;7.72;;;16.80;99.90;;;;;;5069814;28;20079;-66
2022/09/08 09:47:47;;;;;;;8.32;7.00;;;16.80;99.90;;;;;;5069731;28;20044;-66
2022/09/08 09:50:28;;;;;;;8.05;7.20;;;16.80;99.90;;;;;;5069297;28;20119;-65
2022/09/08 09:53:12;;;;;;;9.35;6.63;;;16.80;99.90;;;;;;5069595;28;20472;-67
2022/09/08 09:55:53;;;;;;;7.00;5.82;;;16.80;99.90;;;;;;5070364;28;20060;-66
2022/09/08 09:58:46;;;;;;;8.75;5.95;;;16.90;99.90;;;;;;5070647;28;20102;-67
2022/09/08 10:01:42;;;;;;;7.15;5.22;;;16.80;99.90;;;;;;5070582;28;20063;-66
2022/09/08 10:04:17;;;;;;;7.47;5.70;;;16.80;99.90;;;;;;5072839;28;20408;-67
2022/09/08 10:07:06;;;;;;;7.30;6.40;;;16.80;99.90;;;;;;5074248;28;20123;-67
2022/09/08 10:09:51;;;;;;;8.85;6.30;;;16.80;99.90;;;;;;5073122;28;20084;-66
2022/09/08 10:12:41;;;;;;;8.00;6.75;;;16.80;99.90;;;;;;5074476;28;20109;-68
2022/09/08 10:15:54;;;;;;;7.32;6.53;;;16.80;99.90;;;;;;5074239;28;20053;-67
2022/09/08 10:18:45;;;;;;;6.70;5.93;;;16.80;99.90;;;;;;5049989;28;20262;-66
2022/09/08 10:21:20;;;;;;;6.78;5.40;;;16.80;99.90;;;;;;5071577;28;20048;-67
2022/09/08 10:24:14;;;;;;;6.47;4.53;;;16.80;99.90;;;;;;5073944;28;20045;-67
2022/09/08 10:27:01;;;;;;;4.75;3.92;;;16.80;99.90;;;;;;5073843;28;20068;-66
2022/09/08 10:29:44;;;;;;;4.47;3.10;;;16.80;99.90;;;;;;5073931;28;20052;-66
2022/09/08 10:32:53;;;;;;;3.33;2.65;;;16.70;99.90;;;;;;5074054;28;20094;-66
2022/09/08 10:35:37;;;;;;;3.50;2.75;;;16.70;99.90;;;;;;5060587;28;20057;-66
2022/09/08 10:38:21;;;;;;;2.78;2.17;;;16.60;99.90;;;;;;5069727;28;20135;-67
2022/09/08 10:40:56;;;;;;;4.22;2.83;;;16.60;99.90;;;;;;5072421;28;20401;-66
2022/09/08 10:43:37;;;;;;;3.85;2.50;;;16.50;99.90;;;;;;5073588;28;20048;-66
2022/09/08 10:46:24;;;;;;;4.10;2.72;;;16.60;99.90;;;;;;5053606;28;20084;-66
2022/09/08 10:49:23;;;;;;;3.47;2.65;;;16.60;99.90;;;;;;5053471;28;20103;-66
2022/09/08 10:52:23;;;;;;;3.65;2.70;;;16.60;99.90;;;;;;5053540;28;20052;-66
2022/09/08 10:55:04;;;;;;;3.70;2.47;;;16.60;99.90;;;;;;5053439;28;20057;-66
2022/09/08 10:57:57;;;;;;;3.10;2.33;;;16.60;99.90;;;;;;5053420;28;20048;-66
2022/09/08 11:00:25;;;;;;;3.47;2.67;;;16.60;99.90;;;;;;5053090;28;20478;-65
2022/09/08 11:03:16;;;;;;;4.93;2.60;;;16.60;99.90;;;;;;5053434;28;20052;-65
2022/09/08 11:05:50;;;;;;;3.97;2.60;;;16.60;99.90;;;;;;5052984;28;20507;-66
2022/09/08 11:08:56;;;;;;;3.88;2.60;;;16.60;99.90;;;;;;5052072;28;20056;-66
2022/09/08 11:11:52;;;;;;;3.67;2.80;;;16.60;99.90;;;;;;5055385;28;20063;-66
2022/09/08 11:14:52;;;;;;;4.32;2.83;;;16.60;99.90;;;;;;5072958;28;20515;-66
2022/09/08 11:17:26;;;;;;;4.00;2.70;;;16.50;99.90;;;;;;5073040;28;20094;-66
2022/09/08 11:19:59;;;;;;;4.25;2.90;;;16.60;99.90;;;;;;5071516;28;20048;-66
2022/09/08 11:22:46;;;;;;;5.07;2.83;;;16.60;99.90;;;;;;5071984;28;20052;-67
2022/09/08 11:25:45;;;;;;;3.50;2.70;;;16.60;99.90;;;;;;5071679;28;20055;-66
2022/09/08 11:28:33;;;;;;;3.72;2.70;;;16.60;99.90;;;;;;5072866;28;20124;-66
2022/09/08 11:31:13;;;;;;;3.67;2.53;;;16.50;99.90;;;;;;5071706;28;20056;-66
2022/09/08 11:33:48;;;;;;;3.83;2.38;;;16.50;99.90;;;;;;5072733;28;20056;-65
2022/09/08 11:36:38;;;;;;;3.35;2.33;;;16.50;99.90;;;;;;5069461;28;20155;-66
2022/09/08 11:39:42;;;;;;;3.35;2.50;;;16.40;99.90;;;;;;5070156;28;20487;-66
2022/09/08 11:42:20;;;;;;;4.32;2.63;;;16.50;99.90;;;;;;5043492;28;20045;-66
2022/09/08 11:45:05;;;;;;;4.95;2.40;;;16.50;99.90;;;;;;5055667;28;20051;-66
2022/09/08 11:47:55;;;;;;;3.83;2.53;;;16.50;99.90;;;;;;5070435;28;20051;-66
2022/09/08 11:50:35;;;;;;;3.10;2.33;;;16.50;99.90;;;;;;5070020;28;20067;-66
2022/09/08 11:53:00;;;;;;;3.67;2.42;;;16.40;99.90;;;;;;5072336;28;20378;-66
2022/09/08 11:55:50;;;;;;;3.55;2.25;;;16.50;99.90;;;;;;5072106;28;20059;-66
2022/09/08 11:58:50;;;;;;;3.05;1.90;;;16.50;99.90;;;;;;5071206;28;20124;-66
2022/09/08 12:01:39;;;;;;;3.72;2.10;;;16.40;99.90;;;;;;5071798;28;20057;-66
2022/09/08 12:04:31;;;;;;;3.55;2.00;;;16.50;99.90;;;;;;5072045;28;20056;-66
2022/09/08 12:07:15;;;;;;;3.72;1.95;;;16.40;99.90;;;;;;5059979;28;20125;-66
2022/09/08 12:09:57;;;;;;;3.55;1.85;;;16.50;99.90;;;;;;5071734;28;20076;-66
2022/09/08 12:12:37;;;;;;;3.60;2.10;;;16.50;99.90;;;;;;5070814;28;20155;-66
2022/09/08 12:15:20;;;;;;;3.95;2.63;;;16.50;99.90;;;;;;5071869;28;20113;-66
2022/09/08 12:18:19;;;;;;;5.47;2.10;;;16.50;99.90;;;;;;5071784;28;20048;-66
2022/09/08 12:21:12;;;;;;;4.55;2.33;;;16.50;99.90;;;;;;5070534;28;20059;-66
2022/09/08 12:24:06;;;;;;;2.95;2.20;;;16.50;99.90;;;;;;5071857;28;20052;-66
2022/09/08 12:26:40;;;;;;;3.50;2.85;;;16.60;99.90;;;;;;5065798;28;20055;-66
2022/09/08 12:29:55;;;;;;;3.50;2.55;;;16.60;99.90;;;;;;5063588;28;20051;-65
2022/09/08 12:32:32;;;;;;;3.90;2.70;;;16.70;99.90;;;;;;5051961;28;20055;-65
2022/09/08 12:35:04;;;;;;;4.28;2.60;;;16.70;99.90;;;;;;5058939;28;20049;-65
2022/09/08 12:37:45;;;;;;;4.07;3.00;;;16.70;99.90;;;;;;5071567;28;20393;-65
2022/09/08 12:40:14;;;;;;;4.53;2.47;;;16.80;99.90;;;;;;5071529;28;20044;-66
2022/09/08 12:43:09;;;;;;;4.93;3.17;;;16.70;99.90;;;;;;5071397;28;20075;-66
2022/09/08 12:45:42;;;;;;;5.07;3.75;;;16.80;99.90;;;;;;5071601;28;20110;-66
2022/09/08 12:48:20;;;;;;;5.05;3.17;;;16.80;99.90;;;;;;5071224;28;20053;-66
2022/09/08 12:50:48;;;;;;;4.43;3.10;;;16.80;99.90;;;;;;5071383;28;20093;-66
2022/09/08 12:53:45;;;;;;;5.75;3.47;;;16.80;99.90;;;;;;5071310;28;20091;-66
2022/09/08 12:56:22;;;;;;;4.03;3.17;;;16.90;99.90;;;;;;5070914;28;20053;-66
2022/09/08 12:59:22;;;;;;;5.57;3.50;;;16.90;99.90;;;;;;5070382;28;20048;-66
2022/09/08 13:01:59;;;;;;;6.28;3.92;;;17.00;99.90;;;;;;5068422;28;20048;-66
2022/09/08 13:04:52;;;;;;;5.68;3.97;;;17.10;99.90;;;;;;5065571;28;20056;-66
2022/09/08 13:07:33;;;;;;;4.68;3.50;;;17.10;99.90;;;;;;5054569;28;20048;-66
2022/09/08 13:10:09;;;;;;;5.72;3.45;;;17.20;99.90;;;;;;5070268;28;20056;-66
2022/09/08 13:13:05;;;;;;;4.72;3.70;;;17.20;99.90;;;;;;5071193;28;20543;-66
2022/09/08 13:15:52;;;;;;;5.73;4.40;;;17.30;99.90;;;;;;5071233;28;20127;-66
2022/09/08 13:18:29;;;;;;;5.20;4.32;;;17.30;99.90;;;;;;5070937;28;20271;-66
2022/09/08 13:21:15;;;;;;;6.28;4.50;;;17.40;99.90;;;;;;5070868;28;20097;-66